createdAt,value
2018-11-05T00:01:04.292Z,58.23
2018-11-05T00:03:31.220Z,59.73
2018-11-05T00:05:58.141Z,55.97
2018-11-05T00:08:25.052Z,54.63
2018-11-05T00:10:51.968Z,53.07
2018-11-05T00:13:18.893Z,58.57
2018-11-05T00:15:45.903Z,57.70
2018-11-05T00:18:12.817Z,59.40
2018-11-05T00:20:39.761Z,57.97
2018-11-05T00:23:06.683Z,60.83
2018-11-05T00:25:33.620Z,65.07
2018-11-05T00:28:00.541Z,64.10
2018-11-05T00:30:27.473Z,56.77
2018-11-05T00:32:54.394Z,55.60
2018-11-05T00:35:21.316Z,56.07
2018-11-05T00:37:48.245Z,54.80
2018-11-05T00:40:15.883Z,54.33
2018-11-05T00:42:43.421Z,57.40
2018-11-05T00:45:11.204Z,56.63
2018-11-05T00:47:38.156Z,50.67
2018-11-05T00:50:09.088Z,56.70
2018-11-05T00:52:36.076Z,57.40
2018-11-05T00:55:03.061Z,54.53
2018-11-05T00:57:29.978Z,56.20
2018-11-05T00:59:56.932Z,52.97
2018-11-05T01:02:23.863Z,56.67
2018-11-05T01:04:50.790Z,53.87
2018-11-05T01:07:17.710Z,54.80
2018-11-05T01:09:44.650Z,55.53
2018-11-05T01:12:11.562Z,57.03
2018-11-05T01:14:38.493Z,56.63
2018-11-05T01:17:05.454Z,57.63
2018-11-05T01:19:32.390Z,56.50
2018-11-05T01:21:59.301Z,58.47
2018-11-05T01:24:26.456Z,56.20
2018-11-05T01:26:53.396Z,58.93
2018-11-05T01:29:20.339Z,59.77
2018-11-05T01:31:47.274Z,57.10
2018-11-05T01:34:14.234Z,59.33
2018-11-05T01:36:41.158Z,60.97
2018-11-05T01:39:09.381Z,59.03
2018-11-05T01:41:36.349Z,59.53
2018-11-05T01:44:03.280Z,60.37
2018-11-05T01:46:30.217Z,58.57
2018-11-05T01:48:57.137Z,60.60
2018-11-05T01:51:24.061Z,59.93
2018-11-05T01:53:51.033Z,60.53
2018-11-05T01:56:17.974Z,61.57
2018-11-05T01:58:44.930Z,62.23
2018-11-05T02:01:11.867Z,61.07
2018-11-05T02:03:38.772Z,60.93
2018-11-05T02:06:05.718Z,61.77
2018-11-05T02:08:32.636Z,62.57
2018-11-05T02:10:59.581Z,59.17
2018-11-05T02:13:26.563Z,63.90
2018-11-05T02:16:00.227Z,62.90
2018-11-05T02:18:27.156Z,61.00
2018-11-05T02:20:54.113Z,64.00
2018-11-05T02:23:21.036Z,61.37
2018-11-05T02:25:47.992Z,53.43
2018-11-05T02:28:14.913Z,57.13
2018-11-05T02:30:41.862Z,58.83
2018-11-05T02:33:08.782Z,57.70
2018-11-05T02:35:35.731Z,55.33
2018-11-05T02:38:02.669Z,58.37
2018-11-05T02:40:29.595Z,58.40
2018-11-05T02:42:56.523Z,59.33
2018-11-05T02:45:23.497Z,59.93
2018-11-05T02:47:50.400Z,57.67
2018-11-05T02:50:17.334Z,60.80
2018-11-05T02:52:45.139Z,56.07
2018-11-05T02:55:12.109Z,60.40
2018-11-05T02:57:39.061Z,58.73
2018-11-05T03:00:08.760Z,58.17
2018-11-05T03:02:35.745Z,57.23
2018-11-05T03:05:02.829Z,58.37
2018-11-05T03:07:29.751Z,58.70
2018-11-05T03:09:56.694Z,57.23
2018-11-05T03:12:23.688Z,60.23
2018-11-05T03:14:50.636Z,60.77
2018-11-05T03:17:17.584Z,60.63
2018-11-05T03:19:44.519Z,59.30
2018-11-05T03:22:11.448Z,59.83
2018-11-05T03:24:38.388Z,61.07
2018-11-05T03:27:05.575Z,62.20
2018-11-05T03:29:32.527Z,61.00
2018-11-05T03:31:59.488Z,58.67
2018-11-05T03:34:26.430Z,57.83
2018-11-05T03:36:53.376Z,58.50
2018-11-05T03:39:27.151Z,53.03
2018-11-05T03:41:54.083Z,60.50
2018-11-05T03:44:21.014Z,57.97
2018-11-05T03:46:47.943Z,56.33
2018-11-05T03:49:14.884Z,55.90
2018-11-05T03:51:41.850Z,55.60
2018-11-05T03:54:08.801Z,57.57
2018-11-05T03:56:35.898Z,61.47
2018-11-05T03:59:02.760Z,60.83
2018-11-05T04:01:29.692Z,63.90
2018-11-05T04:03:56.602Z,51.03
2018-11-05T04:06:23.571Z,54.23
2018-11-05T04:08:50.510Z,63.00
2018-11-05T04:11:17.481Z,57.00
2018-11-05T04:13:44.409Z,56.53
2018-11-05T04:16:11.492Z,54.37
2018-11-05T04:18:38.350Z,60.83
2018-11-05T04:21:05.330Z,54.33
2018-11-05T04:23:32.261Z,59.53
2018-11-05T04:25:59.200Z,56.40
2018-11-05T04:28:26.139Z,56.80
2018-11-05T04:30:53.073Z,58.87
2018-11-05T04:33:20.035Z,53.83
2018-11-05T04:35:46.987Z,54.07
2018-11-05T04:38:13.920Z,55.63
2018-11-05T04:40:40.852Z,55.83
2018-11-05T04:43:07.810Z,55.40
2018-11-05T04:45:34.774Z,55.67
2018-11-05T04:48:01.702Z,55.23
2018-11-05T04:50:28.651Z,56.57
2018-11-05T04:52:55.576Z,57.30
2018-11-05T04:55:22.537Z,58.63
2018-11-05T04:57:49.477Z,55.63
2018-11-05T05:00:17.646Z,56.83
2018-11-05T05:02:44.692Z,55.57
2018-11-05T05:05:12.869Z,55.60
2018-11-05T05:07:39.814Z,57.33
2018-11-05T05:10:07.280Z,56.17
2018-11-05T05:12:34.288Z,53.73
2018-11-05T05:15:01.195Z,55.07
2018-11-05T05:17:28.276Z,55.57
2018-11-05T05:19:55.223Z,56.57
2018-11-05T05:22:22.174Z,56.87
2018-11-05T05:24:49.040Z,54.57
2018-11-05T05:27:15.969Z,54.63
2018-11-05T05:29:42.865Z,55.93
2018-11-05T05:32:09.789Z,54.50
2018-11-05T05:34:36.694Z,52.30
2018-11-05T05:37:03.628Z,53.03
2018-11-05T05:39:30.553Z,53.70
2018-11-05T05:41:57.608Z,55.20
2018-11-05T05:44:24.517Z,53.13
2018-11-05T05:46:51.436Z,53.53
2018-11-05T05:49:18.358Z,54.40
2018-11-05T05:51:45.281Z,55.40
2018-11-05T05:54:12.193Z,55.60
2018-11-05T05:56:39.127Z,51.03
2018-11-05T05:59:06.053Z,52.57
2018-11-05T06:01:33.038Z,51.43
2018-11-05T06:03:59.972Z,54.23
2018-11-05T06:06:26.991Z,54.27
2018-11-05T06:08:53.901Z,53.03
2018-11-05T06:11:21.044Z,52.13
2018-11-05T06:13:47.984Z,52.83
2018-11-05T06:16:14.901Z,53.40
2018-11-05T06:18:41.928Z,53.23
2018-11-05T06:21:08.872Z,51.93
2018-11-05T06:23:35.820Z,50.80
2018-11-05T06:26:02.797Z,52.43
2018-11-05T06:28:29.777Z,51.73
2018-11-05T06:30:56.691Z,49.40
2018-11-05T06:33:23.663Z,50.53
2018-11-05T06:35:50.588Z,50.67
2018-11-05T06:38:17.527Z,49.27
2018-11-05T06:40:44.474Z,49.43
2018-11-05T06:43:11.440Z,50.83
2018-11-05T06:45:38.382Z,47.70
2018-11-05T06:48:05.366Z,52.60
2018-11-05T06:50:32.317Z,50.47
2018-11-05T06:52:59.310Z,49.37
2018-11-05T06:55:26.302Z,45.90
2018-11-05T06:57:53.340Z,48.03
2018-11-05T07:00:21.540Z,48.37
2018-11-05T07:02:48.480Z,50.20
2018-11-05T07:05:15.640Z,48.73
2018-11-05T07:07:49.395Z,48.17
2018-11-05T07:10:17.014Z,43.73
2018-11-05T07:12:44.347Z,47.70
2018-11-05T07:15:12.558Z,43.83
2018-11-05T07:17:39.509Z,46.00
2018-11-05T07:20:08.481Z,47.07
2018-11-05T07:22:35.417Z,46.57
2018-11-05T07:25:02.373Z,44.93
2018-11-05T07:27:29.313Z,49.20
2018-11-05T07:29:56.255Z,47.43
2018-11-05T07:32:23.194Z,45.90
2018-11-05T07:34:50.109Z,47.17
2018-11-05T07:37:17.013Z,46.37
2018-11-05T07:39:43.933Z,45.83
2018-11-05T07:42:10.846Z,47.10
2018-11-05T07:44:37.757Z,45.47
2018-11-05T07:47:04.729Z,44.63
2018-11-05T07:49:31.948Z,44.20
2018-11-05T07:51:58.880Z,45.07
2018-11-05T07:54:25.819Z,45.37
2018-11-05T07:56:52.861Z,46.00
2018-11-05T07:59:19.764Z,44.87
2018-11-05T08:01:46.709Z,45.90
2018-11-05T08:04:13.642Z,43.90
2018-11-05T08:06:40.650Z,44.70
2018-11-05T08:09:08.950Z,44.40
2018-11-05T08:11:35.917Z,45.43
2018-11-05T08:14:02.942Z,44.07
2018-11-05T08:16:29.913Z,43.50
2018-11-05T08:18:56.857Z,41.77
2018-11-05T08:21:23.828Z,42.27
2018-11-05T08:23:50.783Z,41.03
2018-11-05T08:26:17.739Z,44.53
2018-11-05T08:28:44.701Z,42.93
2018-11-05T08:31:11.649Z,44.07
2018-11-05T08:33:38.674Z,41.53
2018-11-05T08:36:05.678Z,41.20
2018-11-05T08:38:32.625Z,40.10
2018-11-05T08:40:59.585Z,41.37
2018-11-05T08:43:26.556Z,40.70
2018-11-05T08:45:53.493Z,40.60
2018-11-05T08:48:20.425Z,40.70
2018-11-05T08:50:47.477Z,39.00
2018-11-05T08:53:14.334Z,38.93
2018-11-05T08:55:41.285Z,39.90
2018-11-05T08:58:08.238Z,40.03
2018-11-05T09:00:40.834Z,37.87
2018-11-05T09:03:07.772Z,36.90
2018-11-05T09:05:34.709Z,38.27
2018-11-05T09:08:01.638Z,37.53
2018-11-05T09:10:28.775Z,37.10
2018-11-05T09:12:55.514Z,35.10
2018-11-05T09:15:29.362Z,38.17
2018-11-05T09:17:56.308Z,35.00
2018-11-05T09:20:23.240Z,34.57
2018-11-05T09:22:50.774Z,36.90
2018-11-05T09:25:17.781Z,34.77
2018-11-05T09:27:44.750Z,32.30
2018-11-05T09:30:15.005Z,34.37
2018-11-05T09:32:42.457Z,35.37
2018-11-05T09:35:09.716Z,35.80
2018-11-05T09:37:36.656Z,34.53
2018-11-05T09:40:05.028Z,34.90
2018-11-05T09:42:31.981Z,33.40
2018-11-05T09:44:58.916Z,34.00
2018-11-05T09:47:25.829Z,33.60
2018-11-05T09:49:52.788Z,33.43
2018-11-05T09:52:19.793Z,32.57
2018-11-05T09:54:46.705Z,33.40
2018-11-05T09:57:13.730Z,33.70
2018-11-05T09:59:40.613Z,32.97
2018-11-05T10:02:07.564Z,33.43
2018-11-05T10:04:34.664Z,33.17
2018-11-05T10:07:01.503Z,33.63
2018-11-05T10:09:28.536Z,32.40
2018-11-05T10:11:55.563Z,33.87
2018-11-05T10:14:22.563Z,32.27
2018-11-05T10:16:49.756Z,32.57
2018-11-05T10:19:16.740Z,32.93
2018-11-05T10:21:43.718Z,32.80
2018-11-05T10:24:10.660Z,33.50
2018-11-05T10:26:37.637Z,33.93
2018-11-05T10:29:04.599Z,32.70
2018-11-05T10:31:31.544Z,31.63
2018-11-05T10:33:58.882Z,32.27
2018-11-05T10:36:25.845Z,31.53
2018-11-05T10:38:52.934Z,31.43
2018-11-05T10:41:20.257Z,31.20
2018-11-05T10:43:47.389Z,31.93
2018-11-05T10:46:14.378Z,32.57
2018-11-05T10:48:41.289Z,30.20
2018-11-05T10:51:08.279Z,29.57
2018-11-05T10:53:35.214Z,31.23
2018-11-05T10:56:02.197Z,32.53
2018-11-05T10:58:29.162Z,30.47
2018-11-05T11:01:01.789Z,32.10
2018-11-05T11:03:36.015Z,32.20
2018-11-05T11:06:03.661Z,31.70
2018-11-05T11:08:30.607Z,30.43
2018-11-05T11:10:57.527Z,30.63
2018-11-05T11:13:24.429Z,30.00
2018-11-05T11:15:51.346Z,30.70
2018-11-05T11:18:18.254Z,30.53
2018-11-05T11:20:45.161Z,30.27
2018-11-05T11:23:12.073Z,30.17
2018-11-05T11:25:38.978Z,30.50
2018-11-05T11:28:06.111Z,28.50
2018-11-05T11:30:32.854Z,30.47
2018-11-05T11:32:59.768Z,31.93
2018-11-05T11:35:26.695Z,30.23
2018-11-05T11:37:53.621Z,30.17
2018-11-05T11:40:21.916Z,32.20
2018-11-05T11:42:49.191Z,31.20
2018-11-05T11:45:17.204Z,31.93
2018-11-05T11:47:44.112Z,30.40
2018-11-05T11:50:12.269Z,31.23
2018-11-05T11:52:39.264Z,31.97
2018-11-05T11:55:07.703Z,32.37
2018-11-05T11:57:34.757Z,30.73
2018-11-05T12:00:01.673Z,31.80
2018-11-05T12:02:28.630Z,30.67
2018-11-05T12:04:55.679Z,32.17
2018-11-05T12:07:22.553Z,33.07
2018-11-05T12:09:49.490Z,31.80
2018-11-05T12:12:16.433Z,32.50
2018-11-05T12:14:43.593Z,32.20
2018-11-05T12:17:10.350Z,32.33
2018-11-05T12:19:37.292Z,32.90
2018-11-05T12:22:11.004Z,32.27
2018-11-05T12:24:38.146Z,31.80
2018-11-05T12:27:04.964Z,31.40
2018-11-05T12:29:31.925Z,31.37
2018-11-05T12:31:58.882Z,33.03
2018-11-05T12:34:25.809Z,34.00
2018-11-05T12:36:52.757Z,31.10
2018-11-05T12:39:19.722Z,32.00
2018-11-05T12:41:46.672Z,30.63
2018-11-05T12:44:13.624Z,30.83
2018-11-05T12:46:41.376Z,31.50
2018-11-05T12:49:08.308Z,31.10
2018-11-05T12:51:35.265Z,31.83
2018-11-05T12:54:02.529Z,30.90
2018-11-05T12:56:29.519Z,30.00
2018-11-05T12:58:56.830Z,28.77
2018-11-05T13:01:23.758Z,30.53
2018-11-05T13:03:50.706Z,30.57
2018-11-05T13:06:17.634Z,30.00
2018-11-05T13:08:44.565Z,30.43
2018-11-05T13:11:11.481Z,29.20
2018-11-05T13:13:38.392Z,28.37
2018-11-05T13:16:05.313Z,28.50
2018-11-05T13:18:32.225Z,28.30
2018-11-05T13:20:59.147Z,29.47
2018-11-05T13:23:31.649Z,28.47
2018-11-05T13:25:58.548Z,28.67
2018-11-05T13:28:25.524Z,29.07
2018-11-05T13:30:52.429Z,28.90
2018-11-05T13:33:19.322Z,29.40
2018-11-05T13:35:46.221Z,31.70
2018-11-05T13:38:13.718Z,31.80
2018-11-05T13:40:40.060Z,30.90
2018-11-05T13:43:06.980Z,30.43
2018-11-05T13:45:34.330Z,32.90
2018-11-05T13:48:00.826Z,31.70
2018-11-05T13:50:28.052Z,31.40
2018-11-05T13:52:54.594Z,31.63
2018-11-05T13:55:21.494Z,31.13
2018-11-05T13:57:48.532Z,30.60
2018-11-05T14:00:18.699Z,31.47
2018-11-05T14:02:45.605Z,32.27
2018-11-05T14:05:12.793Z,32.00
2018-11-05T14:07:39.706Z,32.60
2018-11-05T14:10:09.027Z,31.67
2018-11-05T14:12:35.990Z,31.23
2018-11-05T14:15:02.936Z,32.87
2018-11-05T14:17:29.839Z,30.67
2018-11-05T14:19:56.772Z,32.30
2018-11-05T14:22:23.720Z,32.87
2018-11-05T14:24:50.640Z,32.60
2018-11-05T14:27:17.620Z,32.67
2018-11-05T14:29:44.944Z,33.47
2018-11-05T14:32:11.388Z,34.50
2018-11-05T14:37:11.907Z,34.13
2018-11-05T14:39:38.788Z,35.03
2018-11-05T14:42:05.740Z,37.20
2018-11-05T14:44:32.689Z,35.57
2018-11-05T14:46:59.617Z,36.70
2018-11-05T14:49:26.525Z,36.67
2018-11-05T14:51:53.448Z,36.33
2018-11-05T14:54:20.368Z,36.07
2018-11-05T14:56:47.270Z,36.57
2018-11-05T14:59:14.189Z,35.80
2018-11-05T15:01:41.166Z,35.97
2018-11-05T15:04:08.116Z,36.93
2018-11-05T15:06:35.042Z,35.40
2018-11-05T15:09:02.101Z,36.60
2018-11-05T15:11:29.010Z,36.33
2018-11-05T15:13:55.956Z,36.63
2018-11-05T15:16:22.889Z,36.17
2018-11-05T15:18:50.371Z,34.13
2018-11-05T15:21:16.792Z,36.17
2018-11-05T15:23:43.810Z,38.13
2018-11-05T15:26:10.869Z,37.97
2018-11-05T15:28:37.701Z,40.90
2018-11-05T15:31:05.216Z,39.23
2018-11-05T15:33:32.178Z,38.03
2018-11-05T15:35:59.120Z,39.23
2018-11-05T15:38:26.045Z,38.83
2018-11-05T15:40:52.984Z,40.53
2018-11-05T15:43:19.908Z,38.77
2018-11-05T15:45:46.857Z,40.27
2018-11-05T15:48:13.794Z,41.70
2018-11-05T15:50:40.936Z,42.00
2018-11-05T15:53:08.169Z,40.63
2018-11-05T15:55:34.899Z,39.27
2018-11-05T15:58:01.847Z,41.90
2018-11-05T16:00:28.789Z,42.17
2018-11-05T16:02:57.246Z,41.47
2018-11-05T16:05:24.158Z,41.70
2018-11-05T16:07:51.077Z,42.97
2018-11-05T16:10:17.997Z,42.13
2018-11-05T16:12:44.909Z,43.13
2018-11-05T16:15:12.465Z,46.63
2018-11-05T16:17:39.372Z,43.03
2018-11-05T16:20:08.296Z,44.67
2018-11-05T16:22:35.201Z,42.27
2018-11-05T16:25:02.196Z,44.57
2018-11-05T16:27:29.687Z,44.93
2018-11-05T16:29:56.645Z,46.00
2018-11-05T16:32:23.557Z,45.63
2018-11-05T16:34:50.542Z,46.53
2018-11-05T16:37:17.406Z,46.97
2018-11-05T16:39:44.485Z,47.60
2018-11-05T16:42:11.288Z,48.27
2018-11-05T16:44:38.175Z,49.40
2018-11-05T16:47:05.138Z,50.03
2018-11-05T16:49:32.048Z,49.67
2018-11-05T16:51:59.028Z,50.73
2018-11-05T16:54:25.944Z,50.30
2018-11-05T16:56:52.857Z,52.93
2018-11-05T16:59:19.760Z,51.43
2018-11-05T17:01:47.265Z,52.80
2018-11-05T17:04:13.814Z,51.17
2018-11-05T17:06:40.764Z,49.67
2018-11-05T17:09:08.353Z,50.83
2018-11-05T17:11:35.309Z,53.23
2018-11-05T17:16:36.010Z,57.77
2018-11-05T17:19:03.061Z,55.37
2018-11-05T17:21:29.997Z,53.47
2018-11-05T17:23:56.936Z,54.93
2018-11-05T17:26:23.964Z,54.20
2018-11-05T17:28:50.816Z,55.57
2018-11-05T17:31:17.794Z,56.57
2018-11-05T17:33:44.745Z,53.40
2018-11-05T17:36:11.686Z,53.87
2018-11-05T17:38:38.654Z,55.13
2018-11-05T17:41:05.924Z,55.97
2018-11-05T17:43:32.890Z,55.47
2018-11-05T17:45:59.876Z,52.63
2018-11-05T17:48:26.849Z,52.50
2018-11-05T17:50:53.907Z,48.73
2018-11-05T17:53:20.754Z,50.83
2018-11-05T17:55:47.729Z,49.63
2018-11-05T17:58:14.693Z,47.00
2018-11-05T18:00:41.677Z,49.70
2018-11-05T18:03:08.634Z,49.43
2018-11-05T18:05:35.584Z,56.03
2018-11-05T18:08:02.543Z,53.57
2018-11-05T18:10:29.484Z,52.37
2018-11-05T18:12:56.444Z,56.07
2018-11-05T18:15:23.379Z,53.43
2018-11-05T18:17:50.337Z,55.27
2018-11-05T18:20:17.533Z,54.80
2018-11-05T18:22:44.500Z,56.27
2018-11-05T18:25:12.941Z,58.00
2018-11-05T18:27:46.973Z,55.90
2018-11-05T18:30:14.518Z,55.57
2018-11-05T18:32:41.486Z,60.00
2018-11-05T18:35:09.751Z,59.50
2018-11-05T18:37:36.741Z,58.43
2018-11-05T18:40:06.149Z,60.87
2018-11-05T18:42:33.091Z,58.33
2018-11-05T18:45:00.057Z,60.90
2018-11-05T18:47:27.020Z,60.37
2018-11-05T18:49:54.024Z,61.83
2018-11-05T18:52:20.931Z,61.27
2018-11-05T18:54:47.906Z,64.77
2018-11-05T18:57:14.922Z,63.00
2018-11-05T18:59:41.862Z,63.83
2018-11-05T19:02:08.838Z,63.97
2018-11-05T19:04:35.864Z,65.80
2018-11-05T19:07:02.784Z,65.57
2018-11-05T19:09:29.735Z,66.40
2018-11-05T19:11:56.641Z,64.27
2018-11-05T19:14:23.560Z,66.50
2018-11-05T19:16:50.486Z,68.80
2018-11-05T19:19:17.395Z,66.33
2018-11-05T19:21:44.324Z,65.30
2018-11-05T19:24:11.325Z,65.53
2018-11-05T19:26:38.202Z,65.13
2018-11-05T19:29:05.125Z,66.07
2018-11-05T19:31:32.037Z,67.17
2018-11-05T19:33:58.967Z,64.10
2018-11-05T19:36:25.897Z,65.50
2018-11-05T19:38:52.800Z,69.33
2018-11-05T19:41:19.714Z,62.47
2018-11-05T19:43:46.619Z,63.57
2018-11-05T19:46:13.542Z,65.43
2018-11-05T19:48:40.450Z,62.50
2018-11-05T19:51:07.389Z,62.70
2018-11-05T19:53:34.361Z,62.77
2018-11-05T19:56:01.308Z,60.37
2018-11-05T19:58:28.169Z,63.27
2018-11-05T20:00:55.163Z,64.13
2018-11-05T20:03:22.028Z,64.53
2018-11-05T20:05:48.988Z,65.13
2018-11-05T20:08:15.885Z,62.63
2018-11-05T20:10:42.816Z,61.80
2018-11-05T20:13:09.724Z,64.43
2018-11-05T20:15:36.673Z,66.00
2018-11-05T20:18:03.666Z,65.37
2018-11-05T20:20:30.629Z,64.47
2018-11-05T20:22:57.573Z,65.67
2018-11-05T20:25:24.426Z,66.33
2018-11-05T20:27:51.688Z,68.07
2018-11-05T20:30:20.021Z,65.17
2018-11-05T20:32:48.458Z,66.37
2018-11-05T20:35:15.169Z,62.20
2018-11-05T20:37:42.143Z,65.83
2018-11-05T20:40:11.714Z,68.20
2018-11-05T20:42:38.616Z,67.13
2018-11-05T20:45:05.976Z,67.40
2018-11-05T20:47:33.616Z,66.77
2018-11-05T20:50:01.460Z,64.87
2018-11-05T20:52:29.098Z,65.27
2018-11-05T20:54:56.398Z,67.80
2018-11-05T20:57:23.581Z,66.63
2018-11-05T20:59:50.535Z,66.40
2018-11-05T21:02:17.500Z,63.40
2018-11-05T21:04:44.415Z,70.40
2018-11-05T21:07:12.122Z,69.33
2018-11-05T21:09:39.708Z,71.77
2018-11-05T21:12:07.838Z,69.57
2018-11-05T21:14:35.344Z,68.90
2018-11-05T21:17:02.492Z,69.57
2018-11-05T21:19:29.540Z,65.40
2018-11-05T21:21:57.359Z,75.43
2018-11-05T21:24:24.452Z,71.70
2018-11-05T21:26:51.403Z,79.40
2018-11-05T21:29:19.043Z,78.30
2018-11-05T21:31:46.729Z,76.93
2018-11-05T21:34:14.384Z,78.30
2018-11-05T21:36:41.708Z,74.57
2018-11-05T21:39:10.948Z,77.73
2018-11-05T21:41:39.441Z,76.30
2018-11-05T21:44:06.982Z,76.93
2018-11-05T21:46:34.109Z,78.77
2018-11-05T21:49:01.053Z,72.83
2018-11-05T21:51:28.801Z,72.20
2018-11-05T21:53:56.502Z,74.70
2018-11-05T21:56:23.511Z,71.43
2018-11-05T21:58:50.857Z,69.37
2018-11-05T22:01:17.792Z,73.77
2018-11-05T22:03:44.967Z,75.77
2018-11-05T22:06:12.460Z,74.87
2018-11-05T22:08:40.026Z,77.43
2018-11-05T22:11:07.181Z,74.27
2018-11-05T22:13:34.154Z,80.77
2018-11-05T22:16:01.687Z,77.60
2018-11-05T22:18:29.363Z,79.03
2018-11-05T22:23:30.772Z,77.77
2018-11-05T22:25:57.952Z,74.03
2018-11-05T22:28:25.420Z,76.67
2018-11-05T22:30:52.393Z,77.90
2018-11-05T22:33:19.324Z,77.67
2018-11-05T22:35:46.295Z,77.73
2018-11-05T22:38:13.297Z,77.63
2018-11-05T22:40:40.215Z,75.20
2018-11-05T22:43:13.888Z,76.50
2018-11-05T22:45:40.889Z,73.63
2018-11-05T22:48:07.865Z,80.17
2018-11-05T22:50:34.813Z,75.07
2018-11-05T22:53:01.784Z,73.53
2018-11-05T22:55:28.732Z,77.23
2018-11-05T22:57:55.656Z,73.40
2018-11-05T23:00:28.277Z,74.03
2018-11-05T23:03:32.413Z,74.07
2018-11-05T23:05:59.609Z,73.53
2018-11-05T23:08:26.622Z,73.77
2018-11-05T23:10:53.557Z,71.47
2018-11-05T23:13:20.567Z,75.13
2018-11-05T23:15:47.516Z,71.67
2018-11-05T23:18:14.485Z,74.47
2018-11-05T23:20:41.477Z,71.70
2018-11-05T23:23:08.413Z,72.20
2018-11-05T23:25:35.335Z,72.57
2018-11-05T23:28:02.243Z,75.87
2018-11-05T23:30:29.167Z,74.30
2018-11-05T23:32:56.081Z,76.30
2018-11-05T23:35:23.009Z,74.97
2018-11-05T23:37:49.920Z,75.30
2018-11-05T23:40:16.852Z,75.27
2018-11-05T23:42:43.737Z,70.80
2018-11-05T23:45:13.320Z,71.73
2018-11-05T23:47:40.273Z,70.67
2018-11-05T23:50:07.526Z,73.90
2018-11-05T23:52:34.469Z,76.83
2018-11-05T23:55:01.411Z,72.07
2018-11-05T23:57:28.312Z,73.87
2018-11-05T23:59:55.208Z,75.03
